createdAt,value
2019-01-20T00:01:32.205Z,39.53
2019-01-20T00:04:01.460Z,41.00
2019-01-20T00:06:30.656Z,37.63
2019-01-20T00:08:59.809Z,38.13
2019-01-20T00:11:28.965Z,42.03
2019-01-20T00:13:58.112Z,38.23
2019-01-20T00:16:27.386Z,35.40
2019-01-20T00:18:56.770Z,40.57
2019-01-20T00:21:25.932Z,37.90
2019-01-20T00:23:55.180Z,38.53
2019-01-20T00:26:24.334Z,33.90
2019-01-20T00:28:53.489Z,39.43
2019-01-20T00:31:22.672Z,36.00
2019-01-20T00:33:51.837Z,39.20
2019-01-20T00:36:20.999Z,35.53
2019-01-20T00:38:50.205Z,36.77
2019-01-20T00:41:24.038Z,38.80
2019-01-20T00:43:50.325Z,41.18
2019-01-20T00:46:19.509Z,40.33
2019-01-20T00:48:48.692Z,36.20
2019-01-20T00:51:18.129Z,38.20
2019-01-20T00:53:47.286Z,40.53
2019-01-20T00:56:16.448Z,38.17
2019-01-20T00:58:45.708Z,37.17
2019-01-20T01:01:14.870Z,38.43
2019-01-20T01:03:44.120Z,36.73
2019-01-20T01:06:13.278Z,38.40
2019-01-20T01:08:42.655Z,40.80
2019-01-20T01:11:11.881Z,43.17
2019-01-20T01:13:41.148Z,36.75
2019-01-20T01:16:10.317Z,42.33
2019-01-20T01:18:39.488Z,40.87
2019-01-20T01:21:08.643Z,40.43
2019-01-20T01:23:37.876Z,47.20
2019-01-20T01:26:07.095Z,40.50
2019-01-20T01:28:36.259Z,40.87
2019-01-20T01:31:05.450Z,40.90
2019-01-20T01:33:34.587Z,38.00
2019-01-20T01:36:03.841Z,39.37
2019-01-20T01:38:32.989Z,40.23
2019-01-20T01:41:02.171Z,41.53
2019-01-20T01:43:31.388Z,40.63
2019-01-20T01:46:00.623Z,40.97
2019-01-20T01:48:29.804Z,39.10
2019-01-20T01:50:58.971Z,42.45
2019-01-20T01:53:28.122Z,44.27
2019-01-20T01:55:57.378Z,38.50
2019-01-20T01:58:26.512Z,38.33
2019-01-20T02:00:57.685Z,39.63
2019-01-20T02:03:26.854Z,42.27
2019-01-20T02:05:56.085Z,42.33
2019-01-20T02:08:25.228Z,38.42
2019-01-20T02:10:54.436Z,39.63
2019-01-20T02:13:23.703Z,38.60
2019-01-20T02:15:52.949Z,41.85
2019-01-20T02:18:22.120Z,39.60
2019-01-20T02:20:51.408Z,36.15
2019-01-20T02:23:20.578Z,39.85
2019-01-20T02:25:49.764Z,39.35
2019-01-20T02:28:18.921Z,38.05
2019-01-20T02:30:48.272Z,36.48
2019-01-20T02:33:17.452Z,43.58
2019-01-20T02:35:46.620Z,38.10
2019-01-20T02:38:15.853Z,37.90
2019-01-20T02:40:45.004Z,39.38
2019-01-20T02:43:14.190Z,39.13
2019-01-20T02:45:43.383Z,38.73
2019-01-20T02:48:12.745Z,36.40
2019-01-20T02:50:42.190Z,39.95
2019-01-20T02:53:11.353Z,40.60
2019-01-20T02:55:40.576Z,45.55
2019-01-20T02:58:09.750Z,39.20
2019-01-20T03:00:38.986Z,36.23
2019-01-20T03:03:08.140Z,43.83
2019-01-20T03:05:37.295Z,38.67
2019-01-20T03:08:06.481Z,41.75
2019-01-20T03:10:35.636Z,41.20
2019-01-20T03:13:04.892Z,37.45
2019-01-20T03:15:35.792Z,40.45
2019-01-20T03:18:05.553Z,33.48
2019-01-20T03:20:34.712Z,40.30
2019-01-20T03:23:03.898Z,40.60
2019-01-20T03:25:33.032Z,40.10
2019-01-20T03:28:02.232Z,38.10
2019-01-20T03:30:31.381Z,36.25
2019-01-20T03:33:03.729Z,39.92
2019-01-20T03:35:32.985Z,37.90
2019-01-20T03:38:02.172Z,38.67
2019-01-20T03:40:31.335Z,40.43
2019-01-20T03:43:00.533Z,35.03
2019-01-20T03:45:29.686Z,39.80
2019-01-20T03:47:58.873Z,36.30
2019-01-20T03:50:28.108Z,34.10
2019-01-20T03:52:57.295Z,37.93
2019-01-20T03:55:45.512Z,37.80
2019-01-20T03:58:15.046Z,38.80
2019-01-20T04:00:44.209Z,34.05
2019-01-20T04:03:13.369Z,35.25
2019-01-20T04:05:42.523Z,37.17
2019-01-20T04:08:11.670Z,33.60
2019-01-20T04:10:40.916Z,36.17
2019-01-20T04:13:10.141Z,35.60
2019-01-20T04:15:39.320Z,37.30
2019-01-20T04:18:08.473Z,37.73
2019-01-20T04:20:37.651Z,36.93
2019-01-20T04:23:06.801Z,37.55
2019-01-20T04:25:36.045Z,37.03
2019-01-20T04:28:05.195Z,37.55
2019-01-20T04:30:34.353Z,37.57
2019-01-20T04:33:03.521Z,36.20
2019-01-20T04:35:32.691Z,36.83
2019-01-20T04:38:01.861Z,40.80
2019-01-20T04:40:31.015Z,38.15
2019-01-20T04:43:00.163Z,37.13
2019-01-20T04:45:29.407Z,40.05
2019-01-20T04:47:58.556Z,37.05
2019-01-20T04:50:27.751Z,37.60
2019-01-20T04:52:56.910Z,36.77
2019-01-20T04:55:26.066Z,41.30
2019-01-20T04:57:55.991Z,35.65
2019-01-20T05:00:27.513Z,35.28
2019-01-20T05:02:56.763Z,36.88
2019-01-20T05:05:26.096Z,32.67
2019-01-20T05:07:55.277Z,34.10
2019-01-20T05:10:24.482Z,29.60
2019-01-20T05:12:53.712Z,32.35
2019-01-20T05:15:25.598Z,32.48
2019-01-20T05:17:55.051Z,35.50
2019-01-20T05:20:24.411Z,35.58
2019-01-20T05:22:53.580Z,37.63
2019-01-20T05:25:22.849Z,37.03
2019-01-20T05:27:52.078Z,33.08
2019-01-20T05:30:23.675Z,31.73
2019-01-20T05:32:52.862Z,33.63
2019-01-20T05:35:22.003Z,36.38
2019-01-20T05:37:51.181Z,35.55
2019-01-20T05:40:21.204Z,34.27
2019-01-20T05:42:50.608Z,36.08
2019-01-20T05:45:21.990Z,38.63
2019-01-20T05:47:51.223Z,36.57
2019-01-20T05:50:20.400Z,32.30
2019-01-20T05:52:49.561Z,36.77
2019-01-20T05:55:18.707Z,36.33
2019-01-20T05:57:48.000Z,33.20
2019-01-20T06:00:28.117Z,30.65
2019-01-20T06:02:57.485Z,35.78
2019-01-20T06:05:26.643Z,34.60
2019-01-20T06:07:55.797Z,33.50
2019-01-20T06:10:24.949Z,33.67
2019-01-20T06:12:54.605Z,36.30
2019-01-20T06:15:24.526Z,35.05
2019-01-20T06:17:53.685Z,33.00
2019-01-20T06:20:22.853Z,37.95
2019-01-20T06:22:51.984Z,36.80
2019-01-20T06:25:21.146Z,34.77
2019-01-20T06:27:50.284Z,37.47
2019-01-20T06:30:22.460Z,31.77
2019-01-20T06:32:51.600Z,35.13
2019-01-20T06:35:20.767Z,35.53
2019-01-20T06:37:50.004Z,34.78
2019-01-20T06:40:19.197Z,33.77
2019-01-20T06:42:48.348Z,35.80
2019-01-20T06:45:17.518Z,38.73
2019-01-20T06:47:46.781Z,37.28
2019-01-20T06:50:16.765Z,34.08
2019-01-20T06:52:45.921Z,37.17
2019-01-20T06:55:15.297Z,35.98
2019-01-20T06:57:44.470Z,36.30
2019-01-20T07:00:16.304Z,34.97
2019-01-20T07:02:45.467Z,35.13
2019-01-20T07:05:15.368Z,33.40
2019-01-20T07:07:44.637Z,31.60
2019-01-20T07:10:15.066Z,31.87
2019-01-20T07:12:44.232Z,33.90
2019-01-20T07:15:22.076Z,35.03
2019-01-20T07:17:51.322Z,33.73
2019-01-20T07:20:20.840Z,34.97
2019-01-20T07:22:50.005Z,32.40
2019-01-20T07:25:19.295Z,39.90
2019-01-20T07:27:48.456Z,49.37
2019-01-20T07:30:19.855Z,55.13
2019-01-20T07:32:49.187Z,36.70
2019-01-20T07:35:18.749Z,33.67
2019-01-20T07:37:48.048Z,37.67
2019-01-20T07:40:19.133Z,34.53
2019-01-20T07:42:48.328Z,35.75
2019-01-20T07:45:18.215Z,66.65
2019-01-20T07:47:49.046Z,60.15
2019-01-20T07:50:25.905Z,43.83
2019-01-20T07:52:55.202Z,34.70
2019-01-20T07:55:24.527Z,36.93
2019-01-20T07:57:53.768Z,36.13
2019-01-20T08:00:24.812Z,38.53
2019-01-20T08:02:54.023Z,35.73
2019-01-20T08:05:23.243Z,35.17
2019-01-20T08:07:52.400Z,34.17
2019-01-20T08:10:26.744Z,37.60
2019-01-20T08:12:55.912Z,39.30
2019-01-20T08:15:25.192Z,34.63
2019-01-20T08:17:54.367Z,32.93
2019-01-20T08:20:24.223Z,38.53
2019-01-20T08:22:53.466Z,38.03
2019-01-20T08:25:23.520Z,34.57
2019-01-20T08:27:52.705Z,40.93
2019-01-20T08:30:24.088Z,36.30
2019-01-20T08:32:53.227Z,34.90
2019-01-20T08:35:22.506Z,35.13
2019-01-20T08:37:51.699Z,36.73
2019-01-20T08:40:23.456Z,38.30
2019-01-20T08:42:52.612Z,39.23
2019-01-20T08:45:42.933Z,35.63
2019-01-20T08:48:16.483Z,56.83
2019-01-20T08:50:45.702Z,50.43
2019-01-20T08:53:14.890Z,46.43
2019-01-20T08:55:44.121Z,46.90
2019-01-20T08:58:13.300Z,43.97
2019-01-20T09:00:42.557Z,43.67
2019-01-20T09:03:11.704Z,43.87
2019-01-20T09:05:41.021Z,42.07
2019-01-20T09:08:10.262Z,42.83
2019-01-20T09:10:41.468Z,59.70
2019-01-20T09:13:11.134Z,48.10
2019-01-20T09:15:40.504Z,58.47
2019-01-20T09:18:09.653Z,48.57
2019-01-20T09:20:38.820Z,60.97
2019-01-20T09:23:07.983Z,59.53
2019-01-20T09:25:37.233Z,50.00
2019-01-20T09:28:06.430Z,46.47
2019-01-20T09:30:35.868Z,41.20
2019-01-20T09:33:05.348Z,44.73
2019-01-20T09:35:34.524Z,39.53
2019-01-20T09:38:03.877Z,42.20
2019-01-20T09:40:33.066Z,46.50
2019-01-20T09:43:02.212Z,57.10
2019-01-20T09:45:31.623Z,44.13
2019-01-20T09:48:00.936Z,63.17
2019-01-20T09:50:30.119Z,52.13
2019-01-20T09:52:59.285Z,76.67
2019-01-20T09:55:28.438Z,144.77
2019-01-20T09:57:57.889Z,57.67
2019-01-20T10:00:28.835Z,85.00
2019-01-20T10:02:58.009Z,55.27
2019-01-20T10:05:40.125Z,52.90
2019-01-20T10:08:09.345Z,66.27
2019-01-20T10:10:38.553Z,70.32
2019-01-20T10:13:07.721Z,53.23
2019-01-20T10:15:36.935Z,52.33
2019-01-20T10:18:06.213Z,51.47
2019-01-20T10:20:35.363Z,57.40
2019-01-20T10:23:04.654Z,53.40
2019-01-20T10:25:33.834Z,42.17
2019-01-20T10:28:03.316Z,53.10
2019-01-20T10:30:34.362Z,42.33
2019-01-20T10:33:03.869Z,53.27
2019-01-20T10:35:46.453Z,47.00
2019-01-20T10:38:15.825Z,42.80
2019-01-20T10:40:45.153Z,38.30
2019-01-20T10:43:14.352Z,38.60
2019-01-20T10:45:43.670Z,95.23
2019-01-20T10:48:12.936Z,74.80
2019-01-20T10:50:42.201Z,36.07
2019-01-20T10:53:11.344Z,36.93
2019-01-20T10:55:40.522Z,37.03
2019-01-20T10:58:11.680Z,35.90
2019-01-20T11:00:41.817Z,33.27
2019-01-20T11:03:11.168Z,33.67
2019-01-20T11:05:40.363Z,32.40
2019-01-20T11:08:09.541Z,31.20
2019-01-20T11:10:39.956Z,30.03
2019-01-20T11:13:09.527Z,32.53
2019-01-20T11:15:38.821Z,33.57
2019-01-20T11:18:08.060Z,34.20
2019-01-20T11:20:37.628Z,35.23
2019-01-20T11:23:06.848Z,31.83
2019-01-20T11:25:39.032Z,32.30
2019-01-20T11:28:08.364Z,35.17
2019-01-20T11:30:37.561Z,31.60
2019-01-20T11:33:07.624Z,33.13
2019-01-20T11:35:36.894Z,37.77
2019-01-20T11:38:06.417Z,31.60
2019-01-20T11:40:35.587Z,32.80
2019-01-20T11:43:05.137Z,34.10
2019-01-20T11:45:34.520Z,33.57
2019-01-20T11:48:04.011Z,34.83
2019-01-20T11:50:33.317Z,32.97
2019-01-20T11:53:02.573Z,33.60
2019-01-20T11:55:31.860Z,34.47
2019-01-20T11:58:01.092Z,30.30
2019-01-20T12:00:34.507Z,32.40
2019-01-20T12:03:04.084Z,32.97
2019-01-20T12:05:34.540Z,37.87
2019-01-20T12:08:04.076Z,35.57
2019-01-20T12:10:33.409Z,35.13
2019-01-20T12:13:05.237Z,34.30
2019-01-20T12:15:34.609Z,32.53
2019-01-20T12:18:04.534Z,37.10
2019-01-20T12:20:33.708Z,52.20
2019-01-20T12:23:02.960Z,33.77
2019-01-20T12:25:32.256Z,33.13
2019-01-20T12:28:01.572Z,34.37
2019-01-20T12:30:32.615Z,31.83
2019-01-20T12:33:01.795Z,29.17
2019-01-20T12:35:31.040Z,32.20
2019-01-20T12:38:00.419Z,32.27
2019-01-20T12:40:44.532Z,32.03
2019-01-20T12:43:14.265Z,34.23
2019-01-20T12:45:43.592Z,34.00
2019-01-20T12:48:12.864Z,35.83
2019-01-20T12:50:41.996Z,33.53
2019-01-20T12:53:11.260Z,38.57
2019-01-20T12:55:40.407Z,32.03
2019-01-20T12:58:09.991Z,33.73
2019-01-20T13:00:39.159Z,33.90
2019-01-20T13:03:08.313Z,34.53
2019-01-20T13:05:37.468Z,34.77
2019-01-20T13:08:06.729Z,40.77
2019-01-20T13:10:35.959Z,35.73
2019-01-20T13:13:05.327Z,32.20
2019-01-20T13:15:34.507Z,34.60
2019-01-20T13:18:03.692Z,35.07
2019-01-20T13:20:32.856Z,34.27
2019-01-20T13:23:02.170Z,31.50
2019-01-20T13:25:31.910Z,33.23
2019-01-20T13:28:01.545Z,33.87
2019-01-20T13:30:31.108Z,31.47
2019-01-20T13:33:00.235Z,30.87
2019-01-20T13:35:30.115Z,29.60
2019-01-20T13:38:08.041Z,30.93
2019-01-20T13:40:40.797Z,31.73
2019-01-20T13:43:10.157Z,36.23
2019-01-20T13:45:39.352Z,35.83
2019-01-20T13:48:08.563Z,32.50
2019-01-20T13:50:37.761Z,33.83
2019-01-20T13:53:06.929Z,33.90
2019-01-20T13:55:36.113Z,35.57
2019-01-20T13:58:05.396Z,35.13
2019-01-20T14:00:34.617Z,34.50
2019-01-20T14:03:03.808Z,35.47
2019-01-20T14:05:33.027Z,35.47
2019-01-20T14:08:02.302Z,32.03
2019-01-20T14:10:32.665Z,36.03
2019-01-20T14:13:01.848Z,38.13
2019-01-20T14:15:31.016Z,36.67
2019-01-20T14:18:00.188Z,36.93
2019-01-20T14:20:29.335Z,39.97
2019-01-20T14:22:58.607Z,33.87
2019-01-20T14:25:28.341Z,38.70
2019-01-20T14:27:57.892Z,59.30
2019-01-20T14:30:29.024Z,39.60
2019-01-20T14:32:58.186Z,32.73
2019-01-20T14:35:27.525Z,32.37
2019-01-20T14:37:56.855Z,35.20
2019-01-20T14:40:26.030Z,36.90
2019-01-20T14:42:55.884Z,33.23
2019-01-20T14:45:25.052Z,31.10
2019-01-20T14:47:54.334Z,38.57
2019-01-20T14:50:25.255Z,35.33
2019-01-20T14:52:54.420Z,37.37
2019-01-20T14:55:23.878Z,56.33
2019-01-20T14:57:53.445Z,44.87
2019-01-20T15:00:28.585Z,37.97
2019-01-20T15:02:58.000Z,33.97
2019-01-20T15:05:27.148Z,39.23
2019-01-20T15:07:56.396Z,34.73
2019-01-20T15:10:25.772Z,37.60
2019-01-20T15:12:55.152Z,37.47
2019-01-20T15:15:30.528Z,41.33
2019-01-20T15:17:59.805Z,40.60
2019-01-20T15:20:29.014Z,44.77
2019-01-20T15:22:58.296Z,45.03
2019-01-20T15:25:27.598Z,40.73
2019-01-20T15:27:56.737Z,33.30
2019-01-20T15:30:28.064Z,37.97
2019-01-20T15:32:58.603Z,37.10
2019-01-20T15:35:28.432Z,39.80
2019-01-20T15:37:57.770Z,40.43
2019-01-20T15:40:26.963Z,40.10
2019-01-20T15:42:56.322Z,41.07
2019-01-20T15:45:25.815Z,44.27
2019-01-20T15:47:55.094Z,37.60
2019-01-20T15:50:32.024Z,40.40
2019-01-20T15:53:01.898Z,45.97
2019-01-20T15:55:31.768Z,44.67
2019-01-20T15:58:00.949Z,66.90
2019-01-20T16:00:32.023Z,47.47
2019-01-20T16:03:01.542Z,42.17
2019-01-20T16:05:30.972Z,43.80
2019-01-20T16:08:00.264Z,43.97
2019-01-20T16:10:29.604Z,39.33
2019-01-20T16:12:58.777Z,43.07
2019-01-20T16:15:30.640Z,45.93
2019-01-20T16:17:59.812Z,48.47
2019-01-20T16:20:30.775Z,108.33
2019-01-20T16:23:00.921Z,85.07
2019-01-20T16:25:35.283Z,62.47
2019-01-20T16:28:05.386Z,50.40
2019-01-20T16:30:37.120Z,42.70
2019-01-20T16:33:06.723Z,39.57
2019-01-20T16:35:36.156Z,50.43
2019-01-20T16:38:07.045Z,50.20
2019-01-20T16:40:36.264Z,43.80
2019-01-20T16:43:05.930Z,49.47
2019-01-20T16:45:42.112Z,55.30
2019-01-20T16:48:11.897Z,57.07
2019-01-20T16:50:41.313Z,49.33
2019-01-20T16:53:10.843Z,48.73
2019-01-20T16:55:40.065Z,45.43
2019-01-20T16:58:09.337Z,47.13
2019-01-20T17:00:41.385Z,47.53
2019-01-20T17:03:10.697Z,45.43
2019-01-20T17:05:39.920Z,45.83
2019-01-20T17:08:09.550Z,46.03
2019-01-20T17:10:41.053Z,52.40
2019-01-20T17:13:11.338Z,43.03
2019-01-20T17:15:43.128Z,67.03
2019-01-20T17:18:13.813Z,50.53
2019-01-20T17:20:43.022Z,48.33
2019-01-20T17:23:12.272Z,50.33
2019-01-20T17:25:41.475Z,54.07
2019-01-20T17:28:11.794Z,44.63
2019-01-20T17:30:41.844Z,47.83
2019-01-20T17:33:12.596Z,50.27
2019-01-20T17:35:41.769Z,60.20
2019-01-20T17:38:11.856Z,50.50
2019-01-20T17:40:41.055Z,52.57
2019-01-20T17:43:10.324Z,55.43
2019-01-20T17:45:47.678Z,56.03
2019-01-20T17:48:13.438Z,58.63
2019-01-20T17:50:43.873Z,52.43
2019-01-20T17:53:13.596Z,48.70
2019-01-20T17:55:42.809Z,51.83
2019-01-20T17:58:11.973Z,49.70
2019-01-20T18:00:44.401Z,48.60
2019-01-20T18:03:14.043Z,49.83
2019-01-20T18:05:43.694Z,49.43
2019-01-20T18:08:12.952Z,52.47
2019-01-20T18:10:42.288Z,52.10
2019-01-20T18:13:11.707Z,54.30
2019-01-20T18:15:41.083Z,46.20
2019-01-20T18:18:10.460Z,50.73
2019-01-20T18:20:39.655Z,45.37
2019-01-20T18:23:08.873Z,51.10
2019-01-20T18:25:38.508Z,47.77
2019-01-20T18:28:07.669Z,54.17
2019-01-20T18:30:37.052Z,51.10
2019-01-20T18:33:06.408Z,51.13
2019-01-20T18:35:35.609Z,47.03
2019-01-20T18:38:04.965Z,52.23
2019-01-20T18:40:34.283Z,51.23
2019-01-20T18:43:03.565Z,49.33
2019-01-20T18:45:33.346Z,46.53
2019-01-20T18:48:02.485Z,61.47
2019-01-20T18:50:33.898Z,58.10
2019-01-20T18:53:03.257Z,53.97
2019-01-20T18:55:32.524Z,50.10
2019-01-20T18:58:01.755Z,51.00
2019-01-20T19:00:36.695Z,49.27
2019-01-20T19:03:06.461Z,54.10
2019-01-20T19:05:35.834Z,49.73
2019-01-20T19:08:05.339Z,50.87
2019-01-20T19:10:34.808Z,47.40
2019-01-20T19:13:05.612Z,59.30
2019-01-20T19:15:34.772Z,94.33
2019-01-20T19:18:04.053Z,64.90
2019-01-20T19:20:33.256Z,55.70
2019-01-20T19:23:02.544Z,52.83
2019-01-20T19:25:31.693Z,52.10
2019-01-20T19:28:01.041Z,52.23
2019-01-20T19:30:32.673Z,56.53
2019-01-20T19:33:02.053Z,54.57
2019-01-20T19:35:31.414Z,81.07
2019-01-20T19:38:00.898Z,66.07
2019-01-20T19:40:30.143Z,56.33
2019-01-20T19:42:59.608Z,55.63
2019-01-20T19:45:29.083Z,57.73
2019-01-20T19:47:58.473Z,52.00
2019-01-20T19:50:27.605Z,55.43
2019-01-20T19:52:56.865Z,53.70
2019-01-20T19:55:31.420Z,51.07
2019-01-20T19:58:01.990Z,54.53
2019-01-20T20:00:32.907Z,59.00
2019-01-20T20:03:02.190Z,53.00
2019-01-20T20:05:32.087Z,48.73
2019-01-20T20:08:01.549Z,52.50
2019-01-20T20:10:31.096Z,52.37
2019-01-20T20:13:00.284Z,51.43
2019-01-20T20:15:30.541Z,56.17
2019-01-20T20:17:59.715Z,52.83
2019-01-20T20:20:28.969Z,53.30
2019-01-20T20:22:58.212Z,51.00
2019-01-20T20:25:27.917Z,58.70
2019-01-20T20:27:57.092Z,69.77
2019-01-20T20:30:31.608Z,118.10
2019-01-20T20:33:00.846Z,63.87
2019-01-20T20:35:30.983Z,51.83
2019-01-20T20:38:00.268Z,53.47
2019-01-20T20:40:29.607Z,51.93
2019-01-20T20:42:58.924Z,49.40
2019-01-20T20:45:28.376Z,53.20
2019-01-20T20:47:58.730Z,53.33
2019-01-20T20:50:28.021Z,53.67
2019-01-20T20:52:57.756Z,52.80
2019-01-20T20:55:27.045Z,45.57
2019-01-20T20:57:56.227Z,49.30
2019-01-20T21:00:31.119Z,53.77
2019-01-20T21:03:01.621Z,48.30
2019-01-20T21:05:30.778Z,49.37
2019-01-20T21:08:00.096Z,49.50
2019-01-20T21:10:29.267Z,50.30
2019-01-20T21:12:58.452Z,46.97
2019-01-20T21:15:27.659Z,46.93
2019-01-20T21:17:56.864Z,47.60
2019-01-20T21:20:26.425Z,49.73
2019-01-20T21:22:55.677Z,88.43
2019-01-20T21:25:24.947Z,119.00
2019-01-20T21:27:54.144Z,57.87
2019-01-20T21:30:25.595Z,46.33
2019-01-20T21:32:54.767Z,49.70
2019-01-20T21:35:24.092Z,49.37
2019-01-20T21:37:53.328Z,51.07
2019-01-20T21:40:22.509Z,49.57
2019-01-20T21:42:51.762Z,44.33
2019-01-20T21:45:21.093Z,48.03
2019-01-20T21:47:50.273Z,42.30
2019-01-20T21:50:22.072Z,50.60
2019-01-20T21:52:51.606Z,51.00
2019-01-20T21:55:20.772Z,49.27
2019-01-20T21:57:49.941Z,45.80
2019-01-20T22:00:21.499Z,46.70
2019-01-20T22:02:50.694Z,46.07
2019-01-20T22:05:19.853Z,46.27
2019-01-20T22:07:49.200Z,45.50
2019-01-20T22:10:20.277Z,45.33
2019-01-20T22:12:49.468Z,45.60
2019-01-20T22:15:19.056Z,44.83
2019-01-20T22:17:48.905Z,47.10
2019-01-20T22:20:19.920Z,45.97
2019-01-20T22:22:49.538Z,45.77
2019-01-20T22:25:18.861Z,42.30
2019-01-20T22:27:48.070Z,48.00
2019-01-20T22:30:19.421Z,56.90
2019-01-20T22:32:48.557Z,51.17
2019-01-20T22:35:17.965Z,49.80
2019-01-20T22:37:47.169Z,47.73
2019-01-20T22:40:17.519Z,48.93
2019-01-20T22:42:46.812Z,45.20
2019-01-20T22:45:18.520Z,45.23
2019-01-20T22:47:47.663Z,50.27
2019-01-20T22:50:17.273Z,46.20
2019-01-20T22:52:46.453Z,51.07
2019-01-20T22:55:16.314Z,47.30
2019-01-20T22:57:45.497Z,48.83
2019-01-20T23:01:05.132Z,52.80
2019-01-20T23:03:34.285Z,80.00
2019-01-20T23:06:03.513Z,52.47
2019-01-20T23:08:32.729Z,46.10
2019-01-20T23:11:01.884Z,47.40
2019-01-20T23:13:31.040Z,49.40
2019-01-20T23:16:00.220Z,51.83
2019-01-20T23:18:29.389Z,46.77
2019-01-20T23:20:58.569Z,50.90
2019-01-20T23:23:27.729Z,46.87
2019-01-20T23:25:56.989Z,52.07
2019-01-20T23:28:26.153Z,43.87
2019-01-20T23:30:59.003Z,49.10
2019-01-20T23:33:28.756Z,46.93
2019-01-20T23:35:58.728Z,44.67
2019-01-20T23:38:28.612Z,49.80
2019-01-20T23:40:58.687Z,44.90
2019-01-20T23:43:28.633Z,51.23
2019-01-20T23:45:57.760Z,47.30
2019-01-20T23:48:27.053Z,51.00
2019-01-20T23:50:56.226Z,45.93
2019-01-20T23:53:25.445Z,45.73
2019-01-20T23:55:54.569Z,47.80
2019-01-20T23:58:23.734Z,44.13
